Terminal Aerodrome Forecast
Issued by NWS

Home | Current Version | Previous Version | Graphics & Text | Print | Product List | Glossary On
Versions: 1 2 3 4 5 6 7 8 9 10 11 12 13
000
FTUS43 KGRB 172330
TAFRHI
TAF
KRHI 172330Z 1800/1824 20006KT P6SM SKC
     FM180200 25007KT P6SM SKC WS020/28040KT
     FM181200 28008KT 4SM BR SCT005 WS020/32035KT
     FM181400 28007KT P6SM SCT120
     FM181700 27006KT P6SM SCT250=

USA.gov is the U.S. government's official web portal to all federal, state and local government web resources and services.